createdAt,value
2023-03-26T00:00:40.792Z,2.42
2023-03-26T00:03:13.993Z,2.10
2023-03-26T00:05:41.112Z,2.38
2023-03-26T00:08:15.914Z,1.92
2023-03-26T00:10:44.171Z,2.13
2023-03-26T00:13:17.857Z,1.55
2023-03-26T00:15:44.604Z,2.10
2023-03-26T00:18:26.912Z,2.30
2023-03-26T00:20:53.663Z,1.98
2023-03-26T00:23:26.886Z,2.15
2023-03-26T00:25:54.721Z,2.30
2023-03-26T00:28:24.264Z,1.67
2023-03-26T00:31:05.937Z,1.63
2023-03-26T00:33:33.020Z,1.57
2023-03-26T00:36:10.977Z,1.70
2023-03-26T00:38:39.370Z,1.60
2023-03-26T00:41:23.952Z,1.38
2023-03-26T00:44:02.928Z,1.52
2023-03-26T00:46:31.701Z,1.90
2023-03-26T00:49:05.940Z,1.63
2023-03-26T00:51:33.990Z,1.65
2023-03-26T00:54:14.966Z,1.70
2023-03-26T00:56:41.829Z,2.33
2023-03-26T00:59:09.260Z,2.15
2023-03-26T01:01:42.994Z,2.28
2023-03-26T01:04:27.232Z,1.90
2023-03-26T01:06:55.737Z,2.35
2023-03-26T01:09:37.090Z,2.65
2023-03-26T01:12:07.242Z,2.22
2023-03-26T01:14:34.277Z,2.20
2023-03-26T01:17:09.947Z,1.80
2023-03-26T01:19:51.027Z,2.80
2023-03-26T01:22:28.975Z,2.78
2023-03-26T01:24:57.025Z,2.15
2023-03-26T01:27:55.035Z,1.85
2023-03-26T01:30:34.880Z,2.70
2023-03-26T01:33:36.201Z,2.72
2023-03-26T01:36:32.396Z,2.15
2023-03-26T01:39:39.060Z,3.03
2023-03-26T01:42:21.990Z,2.22
2023-03-26T01:45:06.030Z,2.40
2023-03-26T01:47:42.041Z,3.15
2023-03-26T01:50:09.621Z,2.75
2023-03-26T01:52:36.491Z,3.03
2023-03-26T01:55:11.019Z,2.60
2023-03-26T01:58:04.207Z,3.30
2023-03-26T02:00:47.047Z,4.82
2023-03-26T02:04:02.013Z,5.70
2023-03-26T02:06:58.640Z,3.97
2023-03-26T02:09:37.039Z,4.00
2023-03-26T02:12:06.349Z,3.10
2023-03-26T02:14:43.091Z,3.65
2023-03-26T02:17:31.147Z,3.05
2023-03-26T02:20:14.721Z,3.83
2023-03-26T02:22:52.107Z,3.92
2023-03-26T02:25:27.188Z,5.88
2023-03-26T02:27:54.425Z,5.22
2023-03-26T02:30:32.072Z,4.78
2023-03-26T02:32:59.962Z,5.38
2023-03-26T02:35:36.202Z,4.85
2023-03-26T02:38:03.055Z,5.38
2023-03-26T02:40:36.153Z,3.80
2023-03-26T02:43:02.995Z,4.40
2023-03-26T02:45:29.779Z,4.43
2023-03-26T02:48:07.124Z,5.72
2023-03-26T02:50:36.760Z,4.70
2023-03-26T02:53:03.561Z,5.53
2023-03-26T02:55:37.114Z,3.95
2023-03-26T02:58:04.346Z,3.63
2023-03-26T03:00:38.137Z,4.53
2023-03-26T03:03:16.199Z,8.23
2023-03-26T03:05:43.283Z,6.63
2023-03-26T03:08:17.232Z,6.60
2023-03-26T03:10:44.140Z,6.13
2023-03-26T03:13:17.191Z,5.15
2023-03-26T03:15:44.244Z,5.22
2023-03-26T03:18:17.161Z,6.43
2023-03-26T03:20:44.656Z,6.78
2023-03-26T03:23:18.130Z,6.65
2023-03-26T03:25:44.968Z,8.15
2023-03-26T03:28:18.271Z,7.20
2023-03-26T03:30:45.828Z,7.00
2023-03-26T03:33:19.225Z,6.10
2023-03-26T03:35:48.935Z,6.07
2023-03-26T03:38:24.233Z,6.38
2023-03-26T03:40:51.193Z,5.53
2023-03-26T03:43:25.200Z,4.47
2023-03-26T03:45:52.177Z,4.38
2023-03-26T03:48:19.180Z,5.05
2023-03-26T03:50:52.269Z,4.95
2023-03-26T03:53:26.329Z,4.13
2023-03-26T03:56:01.216Z,3.80
2023-03-26T03:58:28.359Z,3.35
2023-03-26T04:01:09.199Z,3.50
2023-03-26T04:03:38.873Z,3.35
2023-03-26T04:06:14.242Z,3.72
2023-03-26T04:08:41.252Z,4.85
2023-03-26T04:11:14.230Z,3.17
2023-03-26T04:13:41.176Z,2.80
2023-03-26T04:16:16.242Z,2.95
2023-03-26T04:18:54.296Z,2.38
2023-03-26T04:21:21.162Z,2.92
2023-03-26T04:23:48.030Z,2.90
2023-03-26T04:26:25.246Z,2.20
2023-03-26T04:28:55.590Z,2.10
2023-03-26T04:31:37.333Z,2.30
2023-03-26T04:34:33.253Z,2.15
2023-03-26T04:37:02.494Z,2.25
2023-03-26T04:39:29.496Z,2.00
2023-03-26T04:42:04.292Z,2.03
2023-03-26T04:44:31.882Z,2.25
2023-03-26T04:47:15.325Z,2.40
2023-03-26T04:49:42.931Z,1.90
2023-03-26T04:52:12.673Z,1.90
2023-03-26T04:54:47.299Z,1.83
2023-03-26T04:57:29.302Z,1.55
2023-03-26T04:59:56.333Z,1.40
2023-03-26T05:02:29.363Z,1.35
2023-03-26T05:05:03.352Z,1.70
2023-03-26T05:07:30.290Z,1.70
2023-03-26T05:10:04.366Z,1.65
2023-03-26T05:12:34.986Z,1.38
2023-03-26T05:15:01.744Z,1.70
2023-03-26T05:17:37.353Z,1.77
2023-03-26T05:20:11.339Z,1.90
2023-03-26T05:22:45.357Z,1.95
2023-03-26T05:25:12.236Z,1.67
2023-03-26T05:27:46.393Z,2.10
2023-03-26T05:30:19.049Z,1.92
2023-03-26T05:32:55.400Z,2.83
2023-03-26T05:35:22.340Z,2.42
2023-03-26T05:37:58.377Z,2.08
2023-03-26T05:40:31.377Z,2.10
2023-03-26T05:43:02.914Z,2.45
2023-03-26T05:45:36.412Z,2.60
2023-03-26T05:48:09.530Z,2.30
2023-03-26T05:50:36.293Z,3.30
2023-03-26T05:53:09.371Z,3.08
2023-03-26T05:55:42.400Z,2.80
2023-03-26T05:58:09.122Z,3.00
2023-03-26T06:00:44.382Z,3.25
2023-03-26T06:03:16.562Z,3.90
2023-03-26T06:05:50.380Z,2.97
2023-03-26T06:08:23.402Z,3.40
2023-03-26T06:10:53.207Z,3.75
2023-03-26T06:13:26.503Z,3.15
2023-03-26T06:15:53.719Z,2.92
2023-03-26T06:18:27.446Z,2.60
2023-03-26T06:21:00.464Z,2.50
2023-03-26T06:23:27.327Z,2.78
2023-03-26T06:26:01.487Z,3.25
2023-03-26T06:28:33.930Z,2.90
2023-03-26T06:31:10.465Z,3.42
2023-03-26T06:33:37.479Z,2.70
2023-03-26T06:36:11.461Z,3.70
2023-03-26T06:38:38.332Z,3.15
2023-03-26T06:41:15.476Z,3.10
2023-03-26T06:43:42.296Z,3.28
2023-03-26T06:46:16.557Z,3.30
2023-03-26T06:48:43.628Z,3.38
2023-03-26T06:51:17.495Z,3.20
2023-03-26T06:53:50.517Z,3.10
2023-03-26T06:56:17.296Z,2.88
2023-03-26T06:58:44.155Z,3.25
2023-03-26T07:01:17.604Z,2.78
2023-03-26T07:03:44.502Z,3.30
2023-03-26T07:06:17.544Z,2.60
2023-03-26T07:08:50.522Z,2.88
2023-03-26T07:11:19.495Z,2.78
2023-03-26T07:13:54.533Z,2.38
2023-03-26T07:16:28.650Z,2.72
2023-03-26T07:19:09.787Z,2.83
2023-03-26T07:21:43.532Z,2.50
2023-03-26T07:24:11.596Z,2.80
2023-03-26T07:27:13.549Z,3.05
2023-03-26T07:29:49.067Z,2.23
2023-03-26T07:32:52.607Z,2.42
2023-03-26T07:35:30.406Z,3.10
2023-03-26T07:38:32.583Z,2.80
2023-03-26T07:41:14.398Z,2.60
2023-03-26T07:44:07.607Z,2.55
2023-03-26T07:46:42.566Z,2.33
2023-03-26T07:49:12.670Z,2.88
2023-03-26T07:51:46.592Z,2.90
2023-03-26T07:54:20.766Z,4.07
2023-03-26T07:57:10.680Z,6.10
2023-03-26T07:59:43.858Z,5.35
2023-03-26T08:02:26.733Z,4.38
2023-03-26T08:05:20.762Z,4.55
2023-03-26T08:08:02.629Z,4.85
2023-03-26T08:11:08.879Z,5.07
2023-03-26T08:14:10.631Z,4.38
2023-03-26T08:16:56.373Z,5.15
2023-03-26T08:19:47.752Z,5.68
2023-03-26T08:22:27.436Z,4.55
2023-03-26T08:25:31.649Z,4.63
2023-03-26T08:28:33.686Z,4.22
2023-03-26T08:31:03.085Z,5.03
2023-03-26T08:33:31.068Z,4.22
2023-03-26T08:36:04.755Z,3.58
2023-03-26T08:38:37.644Z,5.10
2023-03-26T08:41:23.644Z,3.88
2023-03-26T08:44:27.687Z,3.60
2023-03-26T08:47:06.551Z,4.03
2023-03-26T08:50:26.706Z,4.85
2023-03-26T08:53:11.699Z,4.60
2023-03-26T08:56:16.906Z,3.50
2023-03-26T08:59:14.693Z,3.40
2023-03-26T09:01:48.291Z,3.90
2023-03-26T09:04:50.709Z,3.35
2023-03-26T09:07:49.726Z,4.80
2023-03-26T09:10:51.715Z,5.15
2023-03-26T09:13:43.611Z,8.53
2023-03-26T09:16:22.751Z,10.30
2023-03-26T09:19:04.688Z,10.30
2023-03-26T09:21:56.791Z,11.38
2023-03-26T09:25:22.038Z,10.65
2023-03-26T09:28:38.789Z,11.43
2023-03-26T09:31:22.010Z,13.05
2023-03-26T09:34:25.792Z,11.00
2023-03-26T09:37:12.760Z,10.98
2023-03-26T09:40:11.793Z,10.63
2023-03-26T09:42:48.662Z,9.65
2023-03-26T09:45:35.770Z,10.75
2023-03-26T09:48:37.093Z,9.07
2023-03-26T09:51:27.652Z,10.23
2023-03-26T09:54:19.702Z,8.35
2023-03-26T09:57:09.845Z,7.90
2023-03-26T10:00:07.505Z,10.95
2023-03-26T10:03:19.849Z,10.13
2023-03-26T10:06:13.855Z,9.82
2023-03-26T10:08:58.814Z,9.95
2023-03-26T10:11:58.339Z,10.77
2023-03-26T10:14:43.843Z,10.35
2023-03-26T10:17:31.902Z,8.68
2023-03-26T10:20:15.848Z,9.00
2023-03-26T10:23:13.832Z,9.00
2023-03-26T10:26:27.797Z,9.85
2023-03-26T10:29:05.820Z,9.15
2023-03-26T10:31:45.839Z,9.10
2023-03-26T10:34:37.533Z,7.45
2023-03-26T10:37:23.828Z,7.93
2023-03-26T10:40:30.869Z,6.78
2023-03-26T10:43:01.865Z,6.57
2023-03-26T10:45:44.839Z,6.68
2023-03-26T10:48:43.121Z,6.32
2023-03-26T10:51:22.850Z,5.75
2023-03-26T10:54:02.837Z,6.63
2023-03-26T10:56:42.904Z,5.90
2023-03-26T10:59:13.678Z,5.60
2023-03-26T11:01:49.939Z,5.43
2023-03-26T11:04:52.884Z,4.35
2023-03-26T11:10:32.097Z,5.40
2023-03-26T11:16:04.641Z,4.68
2023-03-26T11:19:05.167Z,5.78
2023-03-26T11:22:03.908Z,4.95
2023-03-26T11:24:46.898Z,4.20
2023-03-26T11:27:40.678Z,4.15
2023-03-26T11:30:35.933Z,4.22
2023-03-26T11:33:11.327Z,4.10
2023-03-26T11:35:54.025Z,3.40
2023-03-26T11:38:37.625Z,4.07
2023-03-26T11:41:27.011Z,4.47
2023-03-26T11:44:02.911Z,4.03
2023-03-26T11:46:40.040Z,3.30
2023-03-26T11:49:18.211Z,3.75
2023-03-26T11:51:54.951Z,3.50
2023-03-26T11:54:28.958Z,3.63
2023-03-26T11:57:08.469Z,4.03
2023-03-26T11:59:57.657Z,4.10
2023-03-26T12:02:46.019Z,4.20
2023-03-26T12:05:27.342Z,3.78
2023-03-26T12:08:05.962Z,3.75
2023-03-26T12:10:44.942Z,3.65
2023-03-26T12:16:08.258Z,3.75
2023-03-26T12:18:41.995Z,2.95
2023-03-26T12:21:19.648Z,3.95
2023-03-26T12:24:11.092Z,3.63
2023-03-26T12:26:44.849Z,3.05
2023-03-26T12:29:24.081Z,3.67
2023-03-26T12:32:01.042Z,3.03
2023-03-26T12:34:42.000Z,2.65
2023-03-26T12:37:38.736Z,2.60
2023-03-26T12:40:41.045Z,2.63
2023-03-26T12:44:46.501Z,2.67
2023-03-26T12:47:56.265Z,3.10
2023-03-26T12:49:33.092Z,3.08
2023-03-26T12:52:36.057Z,2.63
2023-03-26T12:55:23.600Z,2.70
2023-03-26T12:58:25.040Z,2.65
2023-03-26T13:01:18.074Z,2.28
2023-03-26T13:04:06.146Z,2.55
2023-03-26T13:07:00.868Z,2.00
2023-03-26T13:10:00.228Z,2.08
2023-03-26T13:12:38.216Z,2.70
2023-03-26T13:15:29.103Z,2.20
2023-03-26T13:18:32.872Z,2.55
2023-03-26T13:21:23.090Z,1.90
2023-03-26T13:24:08.145Z,2.38
2023-03-26T13:27:09.079Z,2.08
2023-03-26T13:30:09.532Z,2.50
2023-03-26T13:32:55.114Z,1.85
2023-03-26T13:35:29.652Z,3.03
2023-03-26T13:38:18.193Z,2.63
2023-03-26T13:41:09.570Z,2.65
2023-03-26T13:43:58.166Z,2.20
2023-03-26T13:46:47.159Z,2.33
2023-03-26T13:49:23.120Z,2.50
2023-03-26T13:52:04.192Z,2.80
2023-03-26T13:54:46.160Z,2.95
2023-03-26T13:57:35.180Z,2.50
2023-03-26T14:00:16.405Z,2.40
2023-03-26T14:02:54.317Z,2.50
2023-03-26T14:05:26.978Z,1.88
2023-03-26T14:08:09.263Z,3.00
2023-03-26T14:10:41.204Z,2.40
2023-03-26T14:13:31.221Z,2.40
2023-03-26T14:16:21.636Z,2.38
2023-03-26T14:19:19.338Z,1.67
2023-03-26T14:22:23.442Z,2.00
2023-03-26T14:25:21.210Z,2.00
2023-03-26T14:28:27.235Z,2.40
2023-03-26T14:31:12.495Z,2.10
2023-03-26T14:34:06.223Z,1.88
2023-03-26T14:36:59.230Z,1.98
2023-03-26T14:39:44.812Z,1.60
2023-03-26T14:42:43.271Z,1.63
2023-03-26T14:45:54.260Z,1.70
2023-03-26T14:48:38.260Z,1.63
2023-03-26T14:51:30.254Z,2.20
2023-03-26T14:54:05.645Z,1.98
2023-03-26T14:56:45.296Z,1.83
2023-03-26T14:59:39.270Z,1.85
2023-03-26T15:02:40.325Z,1.40
2023-03-26T15:05:30.281Z,1.70
2023-03-26T15:08:00.137Z,1.90
2023-03-26T15:10:56.465Z,2.03
2023-03-26T15:14:00.941Z,1.63
2023-03-26T15:16:46.339Z,2.22
2023-03-26T15:19:57.290Z,1.52
2023-03-26T15:22:43.075Z,1.80
2023-03-26T15:25:40.322Z,2.20
2023-03-26T15:28:08.164Z,1.60
2023-03-26T15:31:16.354Z,1.83
2023-03-26T15:34:14.029Z,1.75
2023-03-26T15:37:21.317Z,1.75
2023-03-26T15:40:15.342Z,1.90
2023-03-26T15:43:08.378Z,2.25
2023-03-26T15:45:44.445Z,2.20
2023-03-26T15:48:11.726Z,2.07
2023-03-26T15:51:01.335Z,1.77
2023-03-26T15:53:56.453Z,1.92
2023-03-26T15:56:39.413Z,1.90
2023-03-26T15:59:52.377Z,2.35
2023-03-26T16:02:56.708Z,2.10
2023-03-26T16:05:33.045Z,2.67
2023-03-26T16:08:11.337Z,2.08
2023-03-26T16:10:50.492Z,2.35
2023-03-26T16:13:26.538Z,2.60
2023-03-26T16:15:57.051Z,1.95
2023-03-26T16:18:42.368Z,2.03
2023-03-26T16:21:37.095Z,1.85
2023-03-26T16:24:14.414Z,2.20
2023-03-26T16:26:51.404Z,2.30
2023-03-26T16:29:19.565Z,2.22
2023-03-26T16:32:14.625Z,2.00
2023-03-26T16:34:59.728Z,1.83
2023-03-26T16:37:46.396Z,1.80
2023-03-26T16:40:22.519Z,1.92
2023-03-26T16:43:33.573Z,1.90
2023-03-26T16:46:29.012Z,1.80
2023-03-26T16:49:41.475Z,2.10
2023-03-26T16:52:23.506Z,2.03
2023-03-26T16:55:28.715Z,1.85
2023-03-26T16:58:05.629Z,2.13
2023-03-26T17:00:48.454Z,1.95
2023-03-26T17:03:38.572Z,1.85
2023-03-26T17:06:26.654Z,1.70
2023-03-26T17:09:07.186Z,1.95
2023-03-26T17:12:06.689Z,1.30
2023-03-26T17:15:12.571Z,2.10
2023-03-26T17:18:00.065Z,1.92
2023-03-26T17:20:49.490Z,2.10
2023-03-26T17:23:42.557Z,1.73
2023-03-26T17:26:18.591Z,1.92
2023-03-26T17:29:21.826Z,1.90
2023-03-26T17:32:18.494Z,1.85
2023-03-26T17:34:51.515Z,2.03
2023-03-26T17:37:30.794Z,2.00
2023-03-26T17:40:01.125Z,2.55
2023-03-26T17:42:42.507Z,1.50
2023-03-26T17:45:17.514Z,1.92
2023-03-26T17:47:54.914Z,2.33
2023-03-26T17:50:30.857Z,2.05
2023-03-26T17:53:29.497Z,1.85
2023-03-26T17:56:03.156Z,3.58
2023-03-26T17:58:42.574Z,3.22
2023-03-26T18:01:29.277Z,2.72
2023-03-26T18:04:09.527Z,2.25
2023-03-26T18:06:53.569Z,1.80
2023-03-26T18:10:05.609Z,2.00
2023-03-26T18:13:01.560Z,2.45
2023-03-26T18:15:37.492Z,2.22
2023-03-26T18:18:16.566Z,2.05
2023-03-26T18:20:46.944Z,1.80
2023-03-26T18:23:39.599Z,1.52
2023-03-26T18:26:16.851Z,2.00
2023-03-26T18:28:59.624Z,1.70
2023-03-26T18:31:27.030Z,2.13
2023-03-26T18:34:09.888Z,1.67
2023-03-26T18:36:38.479Z,1.80
2023-03-26T18:39:05.392Z,1.88
2023-03-26T18:41:45.598Z,1.85
2023-03-26T18:44:22.599Z,1.80
2023-03-26T18:47:20.575Z,1.60
2023-03-26T18:49:57.929Z,1.73
2023-03-26T18:52:29.002Z,1.98
2023-03-26T18:55:05.789Z,1.42
2023-03-26T18:57:42.935Z,1.50
2023-03-26T19:00:37.737Z,1.30
2023-03-26T19:03:07.852Z,1.42
2023-03-26T19:05:35.786Z,1.77
2023-03-26T19:08:11.771Z,1.73
2023-03-26T19:10:39.028Z,1.80
2023-03-26T19:13:18.968Z,1.30
2023-03-26T19:15:47.713Z,1.70
2023-03-26T19:18:26.657Z,1.30
2023-03-26T19:20:58.184Z,1.45
2023-03-26T19:23:47.704Z,1.77
2023-03-26T19:26:22.323Z,1.15
2023-03-26T19:28:59.652Z,1.60
2023-03-26T19:31:38.776Z,1.15
2023-03-26T19:34:27.663Z,2.15
2023-03-26T19:37:08.975Z,1.77
2023-03-26T19:39:48.751Z,1.60
2023-03-26T19:42:42.837Z,1.00
2023-03-26T19:45:18.502Z,1.55
2023-03-26T19:48:03.506Z,1.48
2023-03-26T19:50:43.411Z,1.63
2023-03-26T19:53:43.994Z,1.20
2023-03-26T19:56:18.675Z,0.90
2023-03-26T19:58:52.772Z,1.05
2023-03-26T20:01:22.775Z,1.38
2023-03-26T20:03:59.842Z,1.30
2023-03-26T20:06:42.437Z,1.08
2023-03-26T20:09:19.064Z,0.95
2023-03-26T20:11:47.017Z,1.20
2023-03-26T20:14:32.089Z,1.30
2023-03-26T20:16:59.329Z,1.60
2023-03-26T20:19:26.591Z,1.48
2023-03-26T20:21:59.758Z,1.50
2023-03-26T20:24:32.257Z,1.27
2023-03-26T20:27:14.781Z,1.20
2023-03-26T20:29:42.306Z,1.00
2023-03-26T20:32:30.096Z,1.27
2023-03-26T20:34:57.717Z,1.55
2023-03-26T20:37:24.694Z,1.30
2023-03-26T20:39:57.818Z,1.60
2023-03-26T20:42:31.127Z,1.38
2023-03-26T20:45:04.788Z,1.60
2023-03-26T20:47:32.323Z,1.13
2023-03-26T20:50:05.804Z,1.48
2023-03-26T20:52:41.970Z,1.88
2023-03-26T20:55:15.695Z,1.63
2023-03-26T20:57:49.820Z,2.10
2023-03-26T21:00:24.260Z,1.50
2023-03-26T21:03:06.915Z,1.30
2023-03-26T21:05:35.060Z,1.42
2023-03-26T21:08:09.097Z,1.50
2023-03-26T21:10:36.086Z,1.40
2023-03-26T21:13:27.122Z,1.67
2023-03-26T21:15:54.514Z,1.55
2023-03-26T21:18:21.849Z,1.38
2023-03-26T21:21:21.578Z,1.30
2023-03-26T21:24:00.299Z,1.15
2023-03-26T21:26:41.837Z,1.40
2023-03-26T21:29:15.888Z,1.77
2023-03-26T21:31:42.880Z,1.83
2023-03-26T21:34:12.384Z,1.40
2023-03-26T21:36:46.839Z,1.45
2023-03-26T21:39:15.358Z,1.80
2023-03-26T21:42:05.399Z,2.97
2023-03-26T21:44:33.536Z,2.45
2023-03-26T21:47:08.545Z,2.20
2023-03-26T21:49:37.377Z,1.80
2023-03-26T21:52:04.765Z,1.63
2023-03-26T21:54:38.868Z,1.30
2023-03-26T21:57:38.782Z,1.90
2023-03-26T22:00:43.053Z,1.65
2023-03-26T22:03:43.238Z,1.73
2023-03-26T22:06:29.904Z,1.52
2023-03-26T22:08:57.273Z,1.33
2023-03-26T22:11:24.076Z,0.95
2023-03-26T22:13:57.927Z,1.02
2023-03-26T22:16:31.997Z,1.50
2023-03-26T22:18:58.887Z,1.38
2023-03-26T22:21:31.995Z,1.20
2023-03-26T22:23:58.804Z,1.27
2023-03-26T22:26:32.952Z,1.20
2023-03-26T22:28:59.882Z,1.15
2023-03-26T22:31:33.016Z,0.93
2023-03-26T22:33:59.836Z,0.93
2023-03-26T22:36:34.021Z,1.02
2023-03-26T22:39:01.807Z,1.10
2023-03-26T22:41:36.005Z,0.85
2023-03-26T22:44:16.778Z,0.50
2023-03-26T22:46:54.972Z,0.52
2023-03-26T22:49:21.838Z,0.70
2023-03-26T22:51:50.134Z,0.77
2023-03-26T22:54:23.975Z,0.80
2023-03-26T22:56:52.320Z,0.60
2023-03-26T22:59:25.954Z,0.90
2023-03-26T23:01:53.214Z,0.80
2023-03-26T23:04:37.021Z,0.93
2023-03-26T23:07:05.294Z,0.60
2023-03-26T23:09:44.024Z,1.10
2023-03-26T23:12:10.818Z,0.88
2023-03-26T23:14:44.050Z,0.80
2023-03-26T23:17:14.750Z,1.08
2023-03-26T23:19:43.846Z,1.15
2023-03-26T23:22:17.091Z,1.00
2023-03-26T23:24:51.015Z,1.35
2023-03-26T23:27:24.057Z,1.17
2023-03-26T23:29:50.902Z,1.05
2023-03-26T23:32:25.260Z,1.08
2023-03-26T23:34:59.049Z,0.90
2023-03-26T23:37:25.804Z,0.93
2023-03-26T23:39:59.041Z,1.08
2023-03-26T23:42:33.075Z,1.10
2023-03-26T23:44:59.926Z,1.10
2023-03-26T23:47:33.171Z,1.55
2023-03-26T23:50:09.099Z,1.35
2023-03-26T23:52:37.597Z,1.55
2023-03-26T23:55:12.116Z,1.67
2023-03-26T23:57:45.099Z,1.58
